createdAt,value
2018-08-24T00:00:20.779Z,1.98
2018-08-24T00:02:56.557Z,1.60
2018-08-24T00:05:31.774Z,1.60
2018-08-24T00:08:04.949Z,1.33
2018-08-24T00:10:40.991Z,1.33
2018-08-24T00:13:14.971Z,1.80
2018-08-24T00:15:47.747Z,1.90
2018-08-24T00:18:22.203Z,3.10
2018-08-24T00:20:54.912Z,2.90
2018-08-24T00:23:28.938Z,3.10
2018-08-24T00:26:03.287Z,3.63
2018-08-24T00:28:38.152Z,3.23
2018-08-24T00:31:14.530Z,3.77
2018-08-24T00:33:53.675Z,1.97
2018-08-24T00:36:26.626Z,1.93
2018-08-24T00:39:00.697Z,2.07
2018-08-24T00:41:33.274Z,2.40
2018-08-24T00:44:06.060Z,2.20
2018-08-24T00:46:41.291Z,1.77
2018-08-24T00:49:14.133Z,2.00
2018-08-24T00:51:46.772Z,2.33
2018-08-24T00:54:19.590Z,2.27
2018-08-24T00:56:52.393Z,2.27
2018-08-24T00:59:25.598Z,2.20
2018-08-24T01:02:00.820Z,2.17
2018-08-24T01:04:35.848Z,2.40
2018-08-24T01:07:11.299Z,2.40
2018-08-24T01:09:45.147Z,2.90
2018-08-24T01:12:19.487Z,2.80
2018-08-24T01:14:52.535Z,3.20
2018-08-24T01:17:31.633Z,3.00
2018-08-24T01:20:04.533Z,3.25
2018-08-24T01:22:37.597Z,3.13
2018-08-24T01:25:10.529Z,3.60
2018-08-24T01:27:43.911Z,3.60
2018-08-24T01:30:17.683Z,3.97
2018-08-24T01:32:51.736Z,3.97
2018-08-24T01:35:24.208Z,4.53
2018-08-24T01:37:56.669Z,4.40
2018-08-24T01:40:29.366Z,5.00
2018-08-24T01:43:01.896Z,5.60
2018-08-24T01:45:34.466Z,6.53
2018-08-24T01:48:08.413Z,6.80
2018-08-24T01:50:40.970Z,8.40
2018-08-24T01:53:13.592Z,8.73
2018-08-24T01:55:46.786Z,9.52
2018-08-24T01:58:20.003Z,10.90
2018-08-24T02:00:54.616Z,12.82
2018-08-24T02:03:28.354Z,13.17
2018-08-24T02:06:05.452Z,12.80
2018-08-24T02:08:37.960Z,12.53
2018-08-24T02:11:17.252Z,12.03
2018-08-24T02:13:56.089Z,12.97
2018-08-24T02:16:35.316Z,12.87
2018-08-24T02:19:10.502Z,14.33
2018-08-24T02:21:48.708Z,14.37
2018-08-24T02:24:21.509Z,15.25
2018-08-24T02:26:55.104Z,13.37
2018-08-24T02:29:27.660Z,14.63
2018-08-24T02:32:00.685Z,16.65
2018-08-24T02:34:33.216Z,15.60
2018-08-24T02:37:05.836Z,17.02
2018-08-24T02:39:39.617Z,17.73
2018-08-24T02:42:13.657Z,20.67
2018-08-24T02:44:46.484Z,20.85
2018-08-24T02:47:19.601Z,19.47
2018-08-24T02:49:52.216Z,20.57
2018-08-24T02:52:24.737Z,22.62
2018-08-24T02:55:02.451Z,24.27
2018-08-24T02:57:35.301Z,27.17
2018-08-24T03:00:07.437Z,30.87
2018-08-24T03:02:41.228Z,31.17
2018-08-24T03:05:13.781Z,34.10
2018-08-24T03:07:46.638Z,35.63
2018-08-24T03:10:19.600Z,34.67
2018-08-24T03:12:52.025Z,33.90
2018-08-24T03:15:24.637Z,36.10
2018-08-24T03:17:58.672Z,34.47
2018-08-24T03:20:31.868Z,36.75
2018-08-24T03:23:04.355Z,30.07
2018-08-24T03:25:38.665Z,30.73
2018-08-24T03:28:11.245Z,35.95
2018-08-24T03:30:43.750Z,31.10
2018-08-24T03:33:17.089Z,28.67
2018-08-24T03:35:50.233Z,28.47
2018-08-24T03:38:22.785Z,25.27
2018-08-24T03:40:55.584Z,22.90
2018-08-24T03:43:27.921Z,22.30
2018-08-24T03:46:00.442Z,20.67
2018-08-24T03:48:33.389Z,17.10
2018-08-24T03:51:07.012Z,15.43
2018-08-24T03:53:39.428Z,15.00
2018-08-24T03:56:13.581Z,15.70
2018-08-24T03:58:46.068Z,17.73
2018-08-24T04:01:21.560Z,13.57
2018-08-24T04:03:56.457Z,12.83
2018-08-24T04:06:29.079Z,14.02
2018-08-24T04:09:01.732Z,13.37
2018-08-24T04:11:34.453Z,13.77
2018-08-24T04:14:07.176Z,12.77
2018-08-24T04:16:46.370Z,13.87
2018-08-24T04:19:25.361Z,14.68
2018-08-24T04:21:58.335Z,13.40
2018-08-24T04:24:31.053Z,14.93
2018-08-24T04:27:03.640Z,14.30
2018-08-24T04:29:36.368Z,14.30
2018-08-24T04:32:09.000Z,15.03
2018-08-24T04:34:41.451Z,14.57
2018-08-24T04:37:15.349Z,14.90
2018-08-24T04:39:49.565Z,15.03
2018-08-24T04:42:22.892Z,14.87
2018-08-24T04:44:57.787Z,14.97
2018-08-24T04:47:30.289Z,15.07
2018-08-24T04:50:02.802Z,15.73
2018-08-24T04:52:36.721Z,17.37
2018-08-24T04:55:09.388Z,15.03
2018-08-24T04:57:42.828Z,15.93
2018-08-24T05:00:16.863Z,14.93
2018-08-24T05:02:49.427Z,16.07
2018-08-24T05:05:21.964Z,16.73
2018-08-24T05:07:54.825Z,17.30
2018-08-24T05:10:27.341Z,16.97
2018-08-24T05:12:59.913Z,17.63
2018-08-24T05:15:33.877Z,18.75
2018-08-24T05:18:07.863Z,17.37
2018-08-24T05:20:41.325Z,17.80
2018-08-24T05:23:15.260Z,17.73
2018-08-24T05:25:48.589Z,19.03
2018-08-24T05:28:23.782Z,20.33
2018-08-24T05:30:56.716Z,17.60
2018-08-24T05:33:29.257Z,18.07
2018-08-24T05:36:03.460Z,18.37
2018-08-24T05:38:36.080Z,17.83
2018-08-24T05:41:08.873Z,18.80
2018-08-24T05:43:41.861Z,18.43
2018-08-24T05:46:14.340Z,18.13
2018-08-24T05:48:46.769Z,18.40
2018-08-24T05:51:19.301Z,18.53
2018-08-24T05:53:51.941Z,18.97
2018-08-24T05:56:24.512Z,19.10
2018-08-24T05:58:59.018Z,18.80
2018-08-24T06:01:31.719Z,20.07
2018-08-24T06:04:04.537Z,19.40
2018-08-24T06:06:37.613Z,20.90
2018-08-24T06:09:14.192Z,19.37
2018-08-24T06:11:47.150Z,18.10
2018-08-24T06:14:20.777Z,19.00
2018-08-24T06:16:59.505Z,18.50
2018-08-24T06:19:32.820Z,20.13
2018-08-24T06:22:05.883Z,20.10
2018-08-24T06:24:38.621Z,19.63
2018-08-24T06:27:11.177Z,19.80
2018-08-24T06:29:43.744Z,19.47
2018-08-24T06:32:16.394Z,19.60
2018-08-24T06:34:48.963Z,18.73
2018-08-24T06:37:21.524Z,20.50
2018-08-24T06:39:54.100Z,20.27
2018-08-24T06:42:26.742Z,20.03
2018-08-24T06:45:02.970Z,19.47
2018-08-24T06:47:35.949Z,19.20
2018-08-24T06:50:08.453Z,20.17
2018-08-24T06:52:41.064Z,20.53
2018-08-24T06:55:13.487Z,21.43
2018-08-24T06:57:47.208Z,22.10
2018-08-24T07:00:25.357Z,20.37
2018-08-24T07:02:59.009Z,19.87
2018-08-24T07:05:33.010Z,20.37
2018-08-24T07:08:07.070Z,19.37
2018-08-24T07:10:40.601Z,20.35
2018-08-24T07:13:14.282Z,20.95
2018-08-24T07:15:47.014Z,17.80
2018-08-24T07:18:23.492Z,17.67
2018-08-24T07:20:58.932Z,17.63
2018-08-24T07:23:34.673Z,19.03
2018-08-24T07:26:08.926Z,17.97
2018-08-24T07:28:41.742Z,18.67
2018-08-24T07:31:15.063Z,18.30
2018-08-24T07:33:48.272Z,18.47
2018-08-24T07:36:21.637Z,17.70
2018-08-24T07:38:54.329Z,18.87
2018-08-24T07:41:27.966Z,19.83
2018-08-24T07:44:02.896Z,18.17
2018-08-24T07:46:35.618Z,17.03
2018-08-24T07:49:10.452Z,17.43
2018-08-24T07:51:45.405Z,17.30
2018-08-24T07:54:18.680Z,17.83
2018-08-24T07:56:54.443Z,18.17
2018-08-24T07:59:29.957Z,18.30
2018-08-24T08:02:06.282Z,17.33
2018-08-24T08:04:39.212Z,17.53
2018-08-24T08:07:11.704Z,17.40
2018-08-24T08:09:45.024Z,16.40
2018-08-24T08:12:22.066Z,18.02
2018-08-24T08:15:03.929Z,16.30
2018-08-24T08:17:42.227Z,16.07
2018-08-24T08:20:16.189Z,17.00
2018-08-24T08:22:52.243Z,16.52
2018-08-24T08:25:26.939Z,16.07
2018-08-24T08:28:00.135Z,14.97
2018-08-24T08:30:34.824Z,15.03
2018-08-24T08:33:09.375Z,14.57
2018-08-24T08:35:42.004Z,14.53
2018-08-24T08:38:14.876Z,14.17
2018-08-24T08:40:47.758Z,14.23
2018-08-24T08:43:20.369Z,11.70
2018-08-24T08:45:54.745Z,7.30
2018-08-24T08:48:28.318Z,7.35
2018-08-24T08:51:02.413Z,6.57
2018-08-24T08:53:35.386Z,6.10
2018-08-24T08:56:08.532Z,6.43
2018-08-24T08:58:41.264Z,8.00
2018-08-24T09:01:21.737Z,8.53
2018-08-24T09:03:58.604Z,7.77
2018-08-24T09:06:32.071Z,8.70
2018-08-24T09:09:09.649Z,8.77
2018-08-24T09:11:44.980Z,10.43
2018-08-24T09:14:17.751Z,9.63
2018-08-24T09:16:51.188Z,9.77
2018-08-24T09:19:29.422Z,8.83
2018-08-24T09:22:08.581Z,8.90
2018-08-24T09:24:46.540Z,7.90
2018-08-24T09:27:26.468Z,6.27
2018-08-24T09:30:04.792Z,6.77
2018-08-24T09:32:42.546Z,5.80
2018-08-24T09:35:15.616Z,6.25
2018-08-24T09:37:48.116Z,5.73
2018-08-24T09:40:28.434Z,5.30
2018-08-24T09:43:20.638Z,5.33
2018-08-24T09:45:56.145Z,5.50
2018-08-24T09:48:49.947Z,4.50
2018-08-24T09:51:27.375Z,3.53
2018-08-24T09:54:07.036Z,3.43
2018-08-24T09:56:40.453Z,3.77
2018-08-24T09:59:17.308Z,4.30
2018-08-24T10:01:58.868Z,3.90
2018-08-24T10:04:38.577Z,4.83
2018-08-24T10:07:17.530Z,4.30
2018-08-24T10:09:51.447Z,4.23
2018-08-24T10:12:24.605Z,4.13
2018-08-24T10:14:57.197Z,3.72
2018-08-24T10:17:30.405Z,3.80
2018-08-24T10:20:05.695Z,3.47
2018-08-24T10:22:42.230Z,3.90
2018-08-24T10:25:16.916Z,3.27
2018-08-24T10:27:52.133Z,3.13
2018-08-24T10:30:24.776Z,3.37
2018-08-24T10:32:58.159Z,3.03
2018-08-24T10:35:31.948Z,2.50
2018-08-24T10:38:07.247Z,2.77
2018-08-24T10:40:40.821Z,2.90
2018-08-24T10:43:15.240Z,2.72
2018-08-24T10:45:50.175Z,2.92
2018-08-24T10:48:26.413Z,3.00
2018-08-24T10:51:00.154Z,2.13
2018-08-24T10:53:32.896Z,2.70
2018-08-24T10:56:05.557Z,2.23
2018-08-24T10:58:40.852Z,2.30
2018-08-24T11:01:14.771Z,2.30
2018-08-24T11:03:51.359Z,2.30
2018-08-24T11:06:25.765Z,2.20
2018-08-24T11:08:59.747Z,2.30
2018-08-24T11:11:34.435Z,1.80
2018-08-24T11:14:08.361Z,2.10
2018-08-24T11:16:41.961Z,2.00
2018-08-24T11:19:14.833Z,2.03
2018-08-24T11:21:49.383Z,1.97
2018-08-24T11:24:37.187Z,2.00
2018-08-24T11:27:10.014Z,2.00
2018-08-24T11:29:44.774Z,1.90
2018-08-24T11:32:19.656Z,1.90
2018-08-24T11:34:56.054Z,1.60
2018-08-24T11:37:31.241Z,1.93
2018-08-24T11:40:04.668Z,1.67
2018-08-24T11:42:38.735Z,1.70
2018-08-24T11:45:15.229Z,2.10
2018-08-24T11:47:49.439Z,1.90
2018-08-24T11:50:26.477Z,1.83
2018-08-24T11:52:59.667Z,1.80
2018-08-24T11:55:33.473Z,1.60
2018-08-24T11:58:08.153Z,1.70
2018-08-24T12:00:41.898Z,1.70
2018-08-24T12:03:21.203Z,1.70
2018-08-24T12:05:55.586Z,2.00
2018-08-24T12:08:29.636Z,1.75
2018-08-24T12:11:02.161Z,1.90
2018-08-24T12:13:34.831Z,1.40
2018-08-24T12:16:07.745Z,2.23
2018-08-24T12:18:43.839Z,2.07
2018-08-24T12:21:16.393Z,1.60
2018-08-24T12:23:49.987Z,1.93
2018-08-24T12:26:26.417Z,1.93
2018-08-24T12:29:00.683Z,2.03
2018-08-24T12:31:34.528Z,2.00
2018-08-24T12:34:12.956Z,1.63
2018-08-24T12:36:46.761Z,1.67
2018-08-24T12:39:24.877Z,1.83
2018-08-24T12:41:59.052Z,2.00
2018-08-24T12:44:32.633Z,2.03
2018-08-24T12:47:08.209Z,1.80
2018-08-24T12:49:48.327Z,1.73
2018-08-24T12:52:22.327Z,1.87
2018-08-24T12:54:58.611Z,1.40
2018-08-24T13:00:15.747Z,1.67
2018-08-24T13:02:54.580Z,1.73
2018-08-24T13:05:27.820Z,2.00
2018-08-24T13:08:04.390Z,2.00
2018-08-24T13:10:38.249Z,1.90
2018-08-24T13:13:12.467Z,1.73
2018-08-24T13:15:46.409Z,1.50
2018-08-24T13:18:21.257Z,1.53
2018-08-24T13:20:55.481Z,1.70
2018-08-24T13:23:28.089Z,1.93
2018-08-24T13:26:03.155Z,1.60
2018-08-24T13:28:35.901Z,1.87
2018-08-24T13:31:11.441Z,2.00
2018-08-24T13:33:45.076Z,1.90
2018-08-24T13:36:19.043Z,1.70
2018-08-24T13:38:53.568Z,1.60
2018-08-24T13:41:45.530Z,1.43
2018-08-24T13:44:21.401Z,1.50
2018-08-24T13:46:57.251Z,1.85
2018-08-24T13:49:33.937Z,2.70
2018-08-24T13:52:06.835Z,1.83
2018-08-24T13:54:43.544Z,1.43
2018-08-24T13:57:16.788Z,1.80
2018-08-24T13:59:50.233Z,1.80
2018-08-24T14:02:23.068Z,1.77
2018-08-24T14:04:57.017Z,1.77
2018-08-24T14:07:34.320Z,1.60
2018-08-24T14:10:25.469Z,1.50
2018-08-24T14:13:00.819Z,1.80
2018-08-24T14:15:37.050Z,1.50
2018-08-24T14:18:18.420Z,1.90
2018-08-24T14:20:51.671Z,1.60
2018-08-24T14:23:24.208Z,1.60
2018-08-24T14:26:01.400Z,1.73
2018-08-24T14:28:38.115Z,1.63
2018-08-24T14:31:11.433Z,1.53
2018-08-24T14:33:47.632Z,1.40
2018-08-24T14:36:20.330Z,1.60
2018-08-24T14:38:53.579Z,1.60
2018-08-24T14:41:29.233Z,1.40
2018-08-24T14:44:02.716Z,4.87
2018-08-24T14:46:37.253Z,2.23
2018-08-24T14:49:12.753Z,1.40
2018-08-24T14:51:48.636Z,5.40
2018-08-24T14:54:23.205Z,2.00
2018-08-24T14:56:57.855Z,1.73
2018-08-24T14:59:32.325Z,1.60
2018-08-24T15:02:07.354Z,1.57
2018-08-24T15:04:41.569Z,1.73
2018-08-24T15:07:14.885Z,1.40
2018-08-24T15:09:49.657Z,1.80
2018-08-24T15:12:23.604Z,1.50
2018-08-24T15:14:59.389Z,1.80
2018-08-24T15:17:33.957Z,1.40
2018-08-24T15:20:10.981Z,1.80
2018-08-24T15:22:43.489Z,1.60
2018-08-24T15:25:16.049Z,1.63
2018-08-24T15:27:48.864Z,1.77
2018-08-24T15:30:23.558Z,1.70
2018-08-24T15:32:58.190Z,1.50
2018-08-24T15:35:30.784Z,1.83
2018-08-24T15:38:04.461Z,1.50
2018-08-24T15:40:37.157Z,1.50
2018-08-24T15:43:10.796Z,1.60
2018-08-24T15:45:47.666Z,1.80
2018-08-24T15:48:20.390Z,1.40
2018-08-24T15:50:54.092Z,1.80
2018-08-24T15:53:27.295Z,1.97
2018-08-24T15:56:01.682Z,1.63
2018-08-24T15:58:34.838Z,1.70
2018-08-24T16:01:11.830Z,1.37
2018-08-24T16:03:44.732Z,1.63
2018-08-24T16:06:24.753Z,1.60
2018-08-24T16:08:59.411Z,1.43
2018-08-24T16:11:33.085Z,1.63
2018-08-24T16:14:07.023Z,1.70
2018-08-24T16:16:40.773Z,1.98
2018-08-24T16:19:15.344Z,2.17
2018-08-24T16:21:51.156Z,1.43
2018-08-24T16:24:25.077Z,1.60
2018-08-24T16:26:59.906Z,1.70
2018-08-24T16:29:35.024Z,1.57
2018-08-24T16:32:10.213Z,1.57
2018-08-24T16:34:43.284Z,1.60
2018-08-24T16:37:16.477Z,1.30
2018-08-24T16:39:49.563Z,1.63
2018-08-24T16:42:24.957Z,1.50
2018-08-24T16:45:00.021Z,1.40
2018-08-24T16:47:35.888Z,1.50
2018-08-24T16:50:09.851Z,1.50
2018-08-24T16:52:43.964Z,1.60
2018-08-24T16:55:20.303Z,1.37
2018-08-24T16:57:54.539Z,1.57
2018-08-24T17:00:28.589Z,1.53
2018-08-24T17:03:04.760Z,1.60
2018-08-24T17:05:40.011Z,1.40
2018-08-24T17:08:16.829Z,1.23
2018-08-24T17:10:55.756Z,1.50
2018-08-24T17:13:39.910Z,1.67
2018-08-24T17:16:13.493Z,1.43
2018-08-24T17:18:48.723Z,1.40
2018-08-24T17:21:32.319Z,1.17
2018-08-24T17:24:07.279Z,1.50
2018-08-24T17:26:45.344Z,1.33
2018-08-24T17:29:19.340Z,1.60
2018-08-24T17:31:53.762Z,1.40
2018-08-24T17:34:27.624Z,1.50
2018-08-24T17:37:01.965Z,1.48
2018-08-24T17:39:36.969Z,1.30
2018-08-24T17:42:11.992Z,1.33
2018-08-24T17:44:44.615Z,1.43
2018-08-24T17:47:19.556Z,1.40
2018-08-24T17:49:55.666Z,1.25
2018-08-24T17:52:31.366Z,1.40
2018-08-24T17:55:07.614Z,1.73
2018-08-24T17:57:41.578Z,1.50
2018-08-24T18:00:21.358Z,1.30
2018-08-24T18:02:55.096Z,1.67
2018-08-24T18:05:27.792Z,1.50
2018-08-24T18:08:02.380Z,1.55
2018-08-24T18:10:36.536Z,1.43
2018-08-24T18:13:10.845Z,1.30
2018-08-24T18:15:50.510Z,1.50
2018-08-24T18:18:26.211Z,1.70
2018-08-24T18:21:03.847Z,1.42
2018-08-24T18:23:39.839Z,1.60
2018-08-24T18:26:14.037Z,1.40
2018-08-24T18:28:47.217Z,1.40
2018-08-24T18:31:20.440Z,1.63
2018-08-24T18:33:53.464Z,1.50
2018-08-24T18:36:27.667Z,1.47
2018-08-24T18:39:03.011Z,1.40
2018-08-24T18:41:37.596Z,1.43
2018-08-24T18:44:13.280Z,1.50
2018-08-24T18:46:48.603Z,1.20
2018-08-24T18:49:22.961Z,1.43
2018-08-24T18:51:56.565Z,1.43
2018-08-24T18:54:31.441Z,1.33
2018-08-24T18:57:06.349Z,1.40
2018-08-24T18:59:40.029Z,1.50
2018-08-24T19:02:14.177Z,1.20
2018-08-24T19:04:47.974Z,1.50
2018-08-24T19:07:22.043Z,1.65
2018-08-24T19:09:55.244Z,1.60
2018-08-24T19:12:32.453Z,1.10
2018-08-24T19:15:16.280Z,1.50
2018-08-24T19:18:14.095Z,1.50
2018-08-24T19:21:06.216Z,1.30
2018-08-24T19:23:39.716Z,1.40
2018-08-24T19:26:17.256Z,2.67
2018-08-24T19:29:04.743Z,1.97
2018-08-24T19:31:39.490Z,1.65
2018-08-24T19:34:17.272Z,1.70
2018-08-24T19:36:59.103Z,1.43
2018-08-24T19:39:37.002Z,1.43
2018-08-24T19:42:27.476Z,1.43
2018-08-24T19:45:04.749Z,2.00
2018-08-24T19:47:44.698Z,1.50
2018-08-24T19:50:20.999Z,1.77
2018-08-24T19:52:56.029Z,1.75
2018-08-24T19:55:32.182Z,1.60
2018-08-24T19:58:10.569Z,1.50
2018-08-24T20:00:43.177Z,1.87
2018-08-24T20:03:16.508Z,2.00
2018-08-24T20:05:56.593Z,1.67
2018-08-24T20:08:37.631Z,1.80
2018-08-24T20:11:14.401Z,1.50
2018-08-24T20:13:47.836Z,1.70
2018-08-24T20:16:32.442Z,1.43
2018-08-24T20:19:08.676Z,1.93
2018-08-24T20:21:42.334Z,1.50
2018-08-24T20:24:15.578Z,2.07
2018-08-24T20:26:49.900Z,1.43
2018-08-24T20:29:24.420Z,1.92
2018-08-24T20:32:03.300Z,2.40
2018-08-24T20:34:37.396Z,2.07
2018-08-24T20:37:11.278Z,1.80
2018-08-24T20:39:46.284Z,1.70
2018-08-24T20:42:20.692Z,1.70
2018-08-24T20:44:57.486Z,2.13
2018-08-24T20:47:39.855Z,1.77
2018-08-24T20:50:14.800Z,1.90
2018-08-24T20:52:49.831Z,1.60
2018-08-24T20:55:25.054Z,2.20
2018-08-24T20:58:00.322Z,1.90
2018-08-24T21:00:34.273Z,2.50
2018-08-24T21:03:07.129Z,2.13
2018-08-24T21:05:44.309Z,1.63
2018-08-24T21:08:18.058Z,2.10
2018-08-24T21:10:52.791Z,2.07
2018-08-24T21:13:28.679Z,1.97
2018-08-24T21:16:04.973Z,1.80
2018-08-24T21:18:42.644Z,1.90
2018-08-24T21:21:17.624Z,1.60
2018-08-24T21:23:53.868Z,2.20
2018-08-24T21:26:30.431Z,2.00
2018-08-24T21:29:04.351Z,1.87
2018-08-24T21:31:38.830Z,2.20
2018-08-24T21:34:11.460Z,2.00
2018-08-24T21:36:43.970Z,1.63
2018-08-24T21:39:17.757Z,2.03
2018-08-24T21:41:51.120Z,1.67
2018-08-24T21:44:25.009Z,1.60
2018-08-24T21:46:58.669Z,1.70
2018-08-24T21:49:32.104Z,1.60
2018-08-24T21:52:06.637Z,1.53
2018-08-24T21:54:39.671Z,1.50
2018-08-24T21:57:14.024Z,1.43
2018-08-24T21:59:47.189Z,1.70
2018-08-24T22:02:20.648Z,1.67
2018-08-24T22:04:53.231Z,1.43
2018-08-24T22:07:26.833Z,1.80
2018-08-24T22:10:03.674Z,1.70
2018-08-24T22:12:40.171Z,1.80
2018-08-24T22:15:16.773Z,1.87
2018-08-24T22:17:51.253Z,1.60
2018-08-24T22:20:25.413Z,1.20
2018-08-24T22:22:57.963Z,1.50
2018-08-24T22:25:31.377Z,1.30
2018-08-24T22:28:07.695Z,1.17
2018-08-24T22:30:41.613Z,1.30
2018-08-24T22:33:18.139Z,1.40
2018-08-24T22:35:50.702Z,1.20
2018-08-24T22:38:24.321Z,1.33
2018-08-24T22:40:58.768Z,1.20
2018-08-24T22:43:35.341Z,1.40
2018-08-24T22:46:08.480Z,1.40
2018-08-24T22:48:41.568Z,1.57
2018-08-24T22:51:14.957Z,1.20
2018-08-24T22:53:49.008Z,1.30
2018-08-24T22:56:23.917Z,1.53
2018-08-24T22:58:58.525Z,1.20
2018-08-24T23:01:44.529Z,1.10
2018-08-24T23:04:17.684Z,1.23
2018-08-24T23:06:52.078Z,1.57
2018-08-24T23:09:27.925Z,1.63
2018-08-24T23:12:01.236Z,1.60
2018-08-24T23:14:34.461Z,1.47
2018-08-24T23:17:09.237Z,1.50
2018-08-24T23:19:44.341Z,1.30
2018-08-24T23:22:20.169Z,1.43
2018-08-24T23:24:53.569Z,1.35
2018-08-24T23:27:28.705Z,1.50
2018-08-24T23:30:02.753Z,1.10
2018-08-24T23:32:41.023Z,1.30
2018-08-24T23:35:15.892Z,1.10
2018-08-24T23:37:56.381Z,1.50
2018-08-24T23:40:29.134Z,0.90
2018-08-24T23:43:02.636Z,1.37
2018-08-24T23:45:36.167Z,1.30
2018-08-24T23:48:08.857Z,1.30
2018-08-24T23:50:44.274Z,1.33
2018-08-24T23:53:17.273Z,1.50
2018-08-24T23:55:50.314Z,1.10
2018-08-24T23:58:26.553Z,1.17
